W0ANA Weather Reports


Display with metric or nautical units.
time (UTC)temp
F
wind
direction
speed
MPH
gust
MPH
rain 1hr
in
rain 24hr
in
rain mn
in
humidity
%
barometer
mb
20240417100052 46 349 0.0 1.0 0.12 1.97 0.44 95 995.6
20240417094558 46 298 0.0 0.0 0.09 1.93 0.40 95 995.5
20240417093114 46 13 0.0 0.0 0.07 1.88 0.35 95 995.4
20240417091553 46 336 0.0 1.0 0.10 1.86 0.33 95 995.3
20240417090047 46 298 0.0 0.0 0.12 1.85 0.32 95 995.4
20240417084547 46 340 0.0 0.0 0.12 1.84 0.31 95 995.7
20240417083047 46 347 0.0 0.0 0.09 1.81 0.28 94 995.3
20240417081545 46 348 0.0 0.0 0.06 1.76 0.23 94 995.2
20240417080044 46 32 0.0 0.0 0.13 1.73 0.20 94 995.2
20240417074542 47 351 0.0 1.0 0.19 1.72 0.19 93 995.5
20240417073041 47 24 0.0 0.0 0.19 1.72 0.19 93 995.3
20240417071549 47 351 0.0 1.0 0.17 1.70 0.17 93 995.5
20240417070040 47 8 0.0 1.0 0.06 1.59 0.06 92 995.5
20240417064544 47 27 0.0 2.0 0.00 1.53 0.00 92 995.5
20240417063035 47 39 0.0 1.0 0.00 1.53 0.00 92 995.8
20240417061545 47 42 0.0 3.0 0.00 1.53 0.00 92 995.9
20240417060032 48 347 0.0 3.0 0.00 1.53 0.00 91 996.1
20240417054530 48 30 0.0 0.0 0.00 1.53 0.00 91 996.3
20240417053028 48 5 0.0 2.0 0.00 1.53 0.00 91 996.4
20240417051526 48 51 0.0 1.0 0.00 1.53 0.00 90 996.7
20240417050030 48 54 0.0 1.0 0.00 1.53 1.53 90 996.9
20240417044521 48 97 0.0 3.0 0.00 1.53 1.53 90 997.4
20240417043025 48 77 0.0 4.0 0.00 1.53 1.53 90 997.5
20240417041523 49 76 0.0 6.0 0.00 1.53 1.53 89 997.5
20240417040019 49 70 0.0 8.0 0.00 1.53 1.53 89 998.3
20240417034517 49 114 0.0 10.0 0.00 1.53 1.53 90 998.3
20240417033119 48 75 3.0 8.0 0.00 1.53 1.53 92 998.3
20240417031532 48 53 1.0 7.0 0.00 1.53 1.53 94 997.7
20240417030017 48 53 2.0 9.0 0.01 1.53 1.53 94 998.2
20240417024516 48 103 1.0 10.0 0.01 1.53 1.53 94 998.5
20240417023021 48 49 2.0 12.0 0.04 1.53 1.53 94 998.9
20240417021515 48 27 0.0 9.0 0.10 1.53 1.53 94 998.6
20240417020019 48 7 2.0 11.0 0.09 1.52 1.52 93 998.7
20240417014512 49 97 3.0 13.0 0.09 1.52 1.52 91 999.0
20240417013014 50 62 7.0 17.0 0.06 1.49 1.49 89 999.5
20240417011511 50 87 4.0 14.0 0.00 1.43 1.43 87 999.8
20240417010011 50 145 2.0 16.0 0.00 1.43 1.43 86 999.8
20240417004510 50 87 4.0 10.0 0.00 1.43 1.43 88 998.4
20240417003010 50 87 4.0 13.0 0.00 1.43 1.43 89 998.2
20240417001512 49 77 5.0 16.0 0.00 1.43 1.43 92 998.2
20240417000013 48 74 1.0 13.0 0.00 1.43 1.43 94 998.5
20240416234506 48 91 6.0 17.0 0.00 1.43 1.43 95 997.8
20240416233004 47 48 5.0 15.0 0.01 1.43 1.43 96 997.8
20240416231502 47 46 0.0 12.0 0.01 1.43 1.43 96 997.8
20240416230003 46 58 1.0 14.0 0.05 1.43 1.43 96 997.8
20240416224604 46 77 2.0 8.0 0.12 1.43 1.43 96 999.2
20240416223059 45 32 0.0 9.0 0.19 1.42 1.42 96 998.4
20240416221558 45 58 0.0 9.0 0.26 1.42 1.42 96 999.0
20240416220056 45 348 0.0 2.0 0.33 1.38 1.38 95 1001.8
20240416214552 45 10 0.0 1.0 0.36 1.30 1.30 95 1001.9
20240416213055 45 27 0.0 0.0 0.37 1.22 1.22 94 1002.1
20240416211551 45 22 0.0 1.0 0.38 1.15 1.15 93 1003.3
20240416210054 45 223 0.0 1.0 0.34 1.05 1.05 93 1003.9
20240416204554 45 196 0.0 5.0 0.26 0.94 0.94 92 1003.7
20240416203051 45 357 0.0 4.0 0.19 0.85 0.85 92 1002.5
20240416201552 45 55 0.0 4.0 0.14 0.78 0.78 91 1002.8
20240416200046 45 59 0.0 6.0 0.07 0.71 0.71 90 1002.2
20240416194547 45 72 0.0 9.0 0.06 0.68 0.68 90 1002.7
20240416193045 45 64 1.0 6.0 0.05 0.65 0.65 90 1001.9
20240416191549 45 38 2.0 11.0 0.11 0.64 0.64 91 1002.5
20240416190046 45 41 2.0 9.0 0.13 0.64 0.64 92 1002.9
20240416184543 44 65 2.0 10.0 0.13 0.62 0.62 92 1004.4
20240416183038 45 60 0.0 8.0 0.13 0.60 0.60 92 1003.8
20240416181533 45 72 1.0 9.0 0.07 0.53 0.53 92 1005.4
20240416180038 45 259 0.0 8.0 0.16 0.51 0.51 92 1005.5
20240416174536 45 45 0.0 8.0 0.31 0.49 0.49 92 1005.4
20240416173028 45 28 0.0 9.0 0.33 0.47 0.47 91 1006.4
20240416171530 45 65 0.0 9.0 0.36 0.46 0.46 90 1007.5
20240416170020 45 59 0.0 4.0 0.28 0.34 0.34 88 1007.9
20240416164517 45 61 0.0 5.0 0.14 0.18 0.18 86 1008.5
20240416163014 45 101 0.0 4.0 0.12 0.14 0.14 83 1008.4
20240416161512 46 42 0.0 1.0 0.09 0.10 0.10 80 1009.0
20240416160008 47 79 0.0 2.0 0.05 0.06 0.06 75 1009.6
20240416154503 48 80 0.0 7.0 0.03 0.04 0.04 68 1009.1
20240416153100 49 92 4.0 12.0 0.02 0.02 0.02 63 1009.0
20240416151600 49 60 3.0 10.0 0.01 0.01 0.01 59 1008.3
20240416150104 49 127 1.0 8.0 0.01 0.01 0.01 63 1007.7
20240416144553 48 30 0.0 8.0 0.01 0.01 0.01 66 1008.0
20240416143049 49 95 1.0 11.0 0.00 0.00 0.00 62 1009.1
20240416141549 51 85 3.0 12.0 0.00 0.00 0.00 52 1009.7
20240416140047 51 82 5.0 15.0 0.00 0.00 0.00 49 1010.6
20240416134543 51 82 7.0 18.0 0.00 0.00 0.00 50 1009.7
20240416133041 51 89 4.0 20.0 0.00 0.00 0.00 51 1010.1
20240416131540 51 95 6.0 22.0 0.00 0.00 0.00 52 1009.8
20240416130037 51 94 6.0 14.0 0.00 0.00 0.00 54 1009.7
20240416124534 51 107 6.0 13.0 0.00 0.00 0.00 56 1010.3
20240416123030 52 83 9.0 19.0 0.00 0.00 0.00 50 1010.2
20240416121528 52 74 4.0 12.0 0.00 0.00 0.00 51 1010.7
20240416120027 52 65 5.0 21.0 0.00 0.00 0.00 52 1010.2
20240416114525 52 49 8.0 21.0 0.00 0.00 0.00 52 1010.5
20240416113023 52 71 6.0 14.0 0.00 0.00 0.00 52 1010.4
20240416111530 52 62 8.0 17.0 0.00 0.00 0.00 52 1010.1
20240416110018 53 70 5.0 13.0 0.00 0.00 0.00 51 1009.8
20240416104520 53 87 7.0 17.0 0.00 0.00 0.00 51 1009.9
20240416103015 54 96 6.0 18.0 0.00 0.00 0.00 50 1010.1
20240416101511 54 82 5.0 13.0 0.00 0.00 0.00 49 1010.3